Eurocargo Venezia — IBKS — position and weather

sailwx.info

Track history (hours):
 
Tides and Currents Weather Stations Pressure Air Temp Water Temp Dewpoint Dewpoint Depression Visibility Wind Speed Wind Dir Waves Ship Positions

Eurocargo Venezia

Last reported at 2017-May-29 19:48 UTC. Time now 2017-May-30 05:34 UTC.
Position N 37°02' E 015°25'.

Length 200 m; draft 6.6 m.

Type: Ship (hazmat cat D). MMSI: 247297200.

Date/timePositionNaut miles runAvg speedWind from/ knotsBaromVisibWave heightAir tempDewpointWater temp
2017-May-29 19:48N 37°02' E 015°25'618.3
2017-May-29 19:29N 36°56' E 015°24'1019.3
2017-May-29 18:59N 36°48' E 015°18'918.9
2017-May-29 18:30N 36°40' E 015°13'1519.2
2017-May-29 17:42N 36°27' E 015°02'719.8
2017-May-29 17:19N 36°21' E 014°56'619.9
2017-May-29 17:00N 36°16' E 014°52'1020.0
2017-May-29 16:30N 36°08' E 014°44'1020.1
2017-May-29 16:00N 35°60' E 014°37'811.5
2017-May-29 15:17N 35°53' E 014°31'0 0.0
2017-May-29 14:59N 35°53' E 014°31'0 0.0
2017-May-29 14:23N 35°53' E 014°31'0 0.0
2017-May-29 12:41N 35°53' E 014°31'0 0.0
2017-May-29 12:19N 35°53' E 014°31'0 0.0
2017-May-29 11:59N 35°53' E 014°31'0 0.0
2017-May-29 11:29N 35°53' E 014°31'0 0.0
2017-May-29 10:41N 35°53' E 014°31'0 0.0
2017-May-29 06:47N 35°53' E 014°31'0 0.0
2017-May-29 06:23N 35°53' E 014°31'0 0.0
2017-May-29 05:53N 35°53' E 014°31'0 0.0
2017-May-29 05:29N 35°53' E 014°31'0 0.0
2017-May-29 04:52N 35°53' E 014°31'0 0.0
2017-May-29 04:22N 35°53' E 014°31'0 0.0
2017-May-29 03:55N 35°53' E 014°31'0 0.0
2017-May-29 03:22N 35°53' E 014°31'0 0.0
2017-May-29 02:56N 35°53' E 014°31'0 0.8
2017-May-29 02:29N 35°53' E 014°31'4 7.5
2017-May-29 02:00N 35°57' E 014°33'917.8
2017-May-29 01:30N 36°04' E 014°27'918.9
2017-May-29 01:00N 36°10' E 014°18'918.7
2017-May-29 00:30N 36°17' E 014°10'918.6
2017-May-29 00:00N 36°23' E 014°02'918.7
2017-May-28 23:30N 36°29' E 013°53'918.8
2017-May-28 23:00N 36°36' E 013°44'918.7
2017-May-28 22:30N 36°42' E 013°36'918.9
2017-May-28 22:00N 36°48' E 013°27'918.9
2017-May-28 21:30N 36°55' E 013°18'1019.1
2017-May-28 21:00N 37°01' E 013°09'918.7
2017-May-28 20:30N 37°08' E 013°01'918.8
2017-May-28 20:00N 37°14' E 012°52'2818.3
2017-May-28 18:27N 37°33' E 012°26'12618.4
2017-May-28 11:35N 39°27' E 011°15'119.0
2017-May-28 11:31N 39°28' E 011°14'918.7
2017-May-28 11:00N 39°37' E 011°10'4119.1
2017-May-28 08:53N 40°15' E 010°53'13919.0
2017-May-28 01:36N 42°26' E 009°51'619.4
2017-May-28 01:16N 42°32' E 009°48'619.1
2017-May-28 00:58N 42°37' E 009°45'919.1
2017-May-28 00:31N 42°45' E 009°41'1019.0
2017-May-28 00:00N 42°55' E 009°37'918.9
2017-May-27 23:30N 43°04' E 009°34'1119.0
2017-May-27 22:57N 43°14' E 009°30'818.5
2017-May-27 22:30N 43°22' E 009°26'918.4
2017-May-27 22:01N 43°30' E 009°22'918.3
2017-May-27 21:30N 43°39' E 009°18'918.6
2017-May-27 21:00N 43°48' E 009°14'918.8
2017-May-27 20:30N 43°56' E 009°09'918.9
2017-May-27 20:00N 44°05' E 009°05'918.9
2017-May-27 19:31N 44°14' E 009°01'918.5
2017-May-27 19:00N 44°23' E 008°57'3 4.8
2017-May-27 18:28N 44°24' E 008°53'0 0.0
2017-May-27 17:58N 44°24' E 008°53'0 0.0
2017-May-27 17:28N 44°24' E 008°53'0 0.0
2017-May-27 16:58N 44°24' E 008°53'0 0.0
2017-May-27 16:25N 44°24' E 008°53'0 0.0
2017-May-27 15:58N 44°24' E 008°53'0 0.0
2017-May-27 15:28N 44°24' E 008°53'0 0.0
2017-May-27 14:55N 44°24' E 008°53'0 0.0
2017-May-27 13:58N 44°24' E 008°53'0 0.0
2017-May-27 13:28N 44°24' E 008°53'0 0.0
2017-May-27 12:58N 44°24' E 008°53'0 0.0
2017-May-27 12:25N 44°24' E 008°53'0 0.0
2017-May-27 11:58N 44°24' E 008°53'0 0.0
2017-May-27 11:28N 44°24' E 008°53'0 0.0
2017-May-27 10:58N 44°24' E 008°53'0 0.0
2017-May-27 10:25N 44°24' E 008°53'0 0.0
2017-May-27 09:58N 44°24' E 008°53'0 0.0
2017-May-27 09:28N 44°24' E 008°53'0 0.0
2017-May-27 08:58N 44°24' E 008°53'0 0.0
2017-May-27 08:28N 44°24' E 008°53'0 0.0
2017-May-27 08:01N 44°24' E 008°53'0 0.0
2017-May-27 07:28N 44°24' E 008°53'0 0.0
2017-May-27 06:58N 44°24' E 008°53'0 0.4
2017-May-27 06:30N 44°24' E 008°53'3 5.8
2017-May-27 06:01N 44°23' E 008°57'2 4.9
2017-May-27 05:30N 44°21' E 008°59'3 6.7
2017-May-27 05:00N 44°18' E 009°01'816.1
2017-May-27 04:30N 44°12' E 009°09'919.0
2017-May-27 04:00N 44°05' E 009°17'1019.1
2017-May-27 03:30N 43°57' E 009°25'1019.2
2017-May-27 03:00N 43°50' E 009°34'1019.5
2017-May-27 02:30N 43°43' E 009°43'1019.3
2017-May-27 02:00N 43°35' E 009°51'1019.1
2017-May-27 01:30N 43°29' E 010°01'1019.1
2017-May-27 01:00N 43°21' E 010°08'1119.3
2017-May-27 00:26N 43°11' E 010°15'819.2
2017-May-27 00:01N 43°04' E 010°20'1019.4
2017-May-26 23:30N 42°55' E 010°27'1019.1
2017-May-26 23:01N 42°48' E 010°34'1019.1
2017-May-26 22:28N 42°39' E 010°43'28918.8
2017-May-26 07:06N 39°09' E 015°05'318.9
2017-May-26 06:58N 39°07' E 015°07'918.7
2017-May-26 06:29N 38°60' E 015°13'918.9
2017-May-26 06:00N 38°52' E 015°20'918.9
2017-May-26 05:30N 38°44' E 015°26'1019.3
2017-May-26 05:00N 38°36' E 015°32'1019.0
2017-May-26 04:30N 38°27' E 015°37'918.7
2017-May-26 04:01N 38°19' E 015°42'815.5
2017-May-26 03:30N 38°12' E 015°37'816.6
2017-May-26 03:01N 38°04' E 015°34'816.1
2017-May-26 02:30N 37°57' E 015°29'918.4
2017-May-26 02:00N 37°49' E 015°24'1019.1
2017-May-26 01:29N 37°40' E 015°18'36 3.7
2017-May-25 15:34N 37°04' E 015°24'220.2
2017-May-25 15:29N 37°02' E 015°24'919.5
2017-May-25 15:00N 36°53' E 015°22'2020.0
2017-May-25 14:00N 36°35' E 015°10'1020.0
2017-May-25 13:30N 36°27' E 015°03'1019.9
2017-May-25 13:00N 36°19' E 014°55'1020.0
2017-May-25 12:30N 36°12' E 014°47'1019.8
2017-May-25 12:00N 36°03' E 014°40'1019.6
2017-May-25 11:30N 35°56' E 014°33'3 6.1
2017-May-25 10:58N 35°53' E 014°31'0 0.0
2017-May-25 10:28N 35°53' E 014°31'0 0.0
2017-May-25 09:16N 35°53' E 014°31'0 0.0
2017-May-25 08:58N 35°53' E 014°31'0 0.0
2017-May-25 08:28N 35°53' E 014°31'0 0.0
2017-May-25 07:58N 35°53' E 014°31'0 0.0
2017-May-25 07:28N 35°53' E 014°31'0 0.0
2017-May-25 06:58N 35°53' E 014°31'0 0.0
2017-May-25 06:28N 35°53' E 014°31'0 0.0
2017-May-25 05:58N 35°53' E 014°31'0 0.0
2017-May-25 05:25N 35°53' E 014°31'0 0.0
2017-May-25 04:55N 35°53' E 014°31'0 0.0
2017-May-25 04:28N 35°53' E 014°31'0 0.0
2017-May-25 03:55N 35°53' E 014°31'0 0.0
2017-May-25 03:28N 35°53' E 014°31'0 0.0
2017-May-25 02:50N 35°53' E 014°31'1 2.0
2017-May-25 02:27N 35°54' E 014°31'410.0
2017-May-25 02:00N 35°57' E 014°35'816.1
2017-May-25 01:30N 36°04' E 014°40'918.5
2017-May-25 01:00N 36°11' E 014°47'918.4
2017-May-25 00:31N 36°18' E 014°54'1018.4
2017-May-25 00:00N 36°26' E 015°01'918.6
2017-May-24 23:30N 36°34' E 015°07'1018.7
2017-May-24 23:00N 36°41' E 015°14'919.2
2017-May-24 22:30N 36°50' E 015°20'1019.1
2017-May-24 22:00N 36°58' E 015°25'3217.9
2017-May-24 20:13N 37°27' E 015°08'4 0.3
2017-May-24 09:20N 37°30' E 015°11'718.5
2017-May-24 08:59N 37°35' E 015°17'918.6
2017-May-24 08:30N 37°43' E 015°22'918.9
2017-May-24 08:00N 37°51' E 015°28'1019.9
2017-May-24 07:30N 38°01' E 015°31'1019.1
2017-May-24 07:00N 38°10' E 015°35'918.7
2017-May-24 06:30N 38°18' E 015°40'1019.1
2017-May-24 06:00N 38°27' E 015°36'1019.3
2017-May-24 05:30N 38°36' E 015°30'919.2
2017-May-24 05:00N 38°44' E 015°24'919.0
2017-May-24 04:30N 38°52' E 015°19'1119.1
2017-May-24 03:56N 39°01' E 015°11'28619.2
2017-May-23 13:02N 42°29' E 010°52'019.4
2017-May-23 13:00N 42°29' E 010°52'1019.4
2017-May-23 12:30N 42°37' E 010°44'919.3
2017-May-23 12:00N 42°45' E 010°37'1019.6
2017-May-23 11:30N 42°53' E 010°29'1019.1
2017-May-23 11:00N 43°02' E 010°23'1019.4
2017-May-23 10:30N 43°11' E 010°19'1019.4
2017-May-23 10:00N 43°20' E 010°15'918.8
2017-May-23 09:30N 43°29' E 010°12'510.3
2017-May-23 09:00N 43°33' E 010°17'2 4.0
2017-May-23 08:30N 43°35' E 010°19'0 0.5
2017-May-23 07:59N 43°35' E 010°19'0 0.0
2017-May-23 07:26N 43°35' E 010°19'0 0.0
2017-May-23 06:59N 43°35' E 010°19'0 0.0
2017-May-23 06:29N 43°35' E 010°19'0 0.0
2017-May-23 05:59N 43°35' E 010°19'0 0.0
2017-May-23 05:29N 43°35' E 010°19'0 0.0
2017-May-23 04:59N 43°35' E 010°19'0 0.0
2017-May-23 04:29N 43°35' E 010°19'0 0.0
2017-May-23 03:59N 43°35' E 010°19'0 0.0
2017-May-23 03:29N 43°35' E 010°19'0 0.0
2017-May-23 02:59N 43°35' E 010°19'0 0.0
2017-May-23 02:29N 43°35' E 010°19'0 0.0
2017-May-23 01:59N 43°35' E 010°19'0 0.0
2017-May-23 01:29N 43°35' E 010°19'0 0.0
2017-May-23 00:59N 43°35' E 010°19'0 0.0
2017-May-23 00:26N 43°35' E 010°19'0 0.0
2017-May-22 23:59N 43°35' E 010°19'1 1.7
2017-May-22 23:30N 43°34' E 010°18'4 8.4
2017-May-22 23:01N 43°31' E 010°15'917.2
2017-May-22 22:31N 43°30' E 010°03'1020.8
2017-May-22 22:01N 43°35' E 009°50'1121.4
2017-May-22 21:30N 43°44' E 009°41'1121.4
2017-May-22 21:00N 43°52' E 009°31'1121.3
2017-May-22 20:30N 43°60' E 009°22'1121.2
2017-May-22 20:01N 44°08' E 009°12'1121.1
2017-May-22 19:31N 44°16' E 009°03'917.5
2017-May-22 19:00N 44°23' E 008°56'2 4.2
2017-May-22 18:29N 44°24' E 008°53'0 0.0
2017-May-22 17:59N 44°24' E 008°53'0 0.0
2017-May-22 17:29N 44°24' E 008°53'0 0.0
2017-May-22 16:56N 44°24' E 008°53'0 0.0
2017-May-22 16:26N 44°24' E 008°53'0 0.0
2017-May-22 15:53N 44°24' E 008°53'0 0.0
2017-May-22 15:29N 44°24' E 008°53'0 0.0
2017-May-22 14:53N 44°24' E 008°53'0 0.0
2017-May-22 13:56N 44°24' E 008°53'0 0.0
2017-May-22 13:29N 44°24' E 008°53'0 0.0
2017-May-22 12:59N 44°24' E 008°53'0 0.0
2017-May-22 12:29N 44°24' E 008°53'0 0.0
2017-May-22 11:59N 44°24' E 008°53'0 0.0
2017-May-22 11:29N 44°24' E 008°53'0 0.0
2017-May-22 10:56N 44°24' E 008°53'0 0.0
2017-May-22 10:29N 44°24' E 008°53'0 0.0
2017-May-22 09:59N 44°24' E 008°53'0 0.0
2017-May-22 09:29N 44°24' E 008°53'0 0.0
2017-May-22 08:59N 44°24' E 008°53'0 0.0
2017-May-22 08:29N 44°24' E 008°53'0 0.0
2017-May-22 07:59N 44°24' E 008°53'0 0.8
2017-May-22 07:30N 44°24' E 008°54'3 6.2
2017-May-22 07:00N 44°23' E 008°58'815.3
2017-May-22 06:30N 44°16' E 009°03'1019.6
2017-May-22 06:00N 44°09' E 009°12'1019.5
2017-May-22 05:30N 44°01' E 009°21'1019.3
2017-May-22 05:00N 43°54' E 009°30'1019.4
2017-May-22 04:30N 43°47' E 009°39'1019.6
2017-May-22 04:00N 43°39' E 009°48'1019.4
2017-May-22 03:30N 43°32' E 009°57'918.8
2017-May-22 03:01N 43°25' E 010°05'1019.3
2017-May-22 02:31N 43°17' E 010°11'1019.1
2017-May-22 02:00N 43°08' E 010°17'1019.2
2017-May-22 01:30N 42°60' E 010°24'918.4
2017-May-22 01:01N 42°52' E 010°31'1618.7
2017-May-22 00:10N 42°39' E 010°43'319.2
2017-May-22 00:01N 42°37' E 010°45'1019.4
2017-May-21 23:30N 42°29' E 010°53'4419.3
2017-May-21 21:15N 42°01' E 011°38'519.0
2017-May-21 21:00N 41°57' E 011°43'4919.1
2017-May-21 18:25N 41°24' E 012°30'18018.0
2017-May-21 08:23N 39°08' E 015°06'818.3
2017-May-21 07:58N 39°02' E 015°12'818.6
2017-May-21 07:30N 38°55' E 015°18'918.6
2017-May-21 07:00N 38°47' E 015°24'918.6
2017-May-21 06:30N 38°39' E 015°30'918.1
2017-May-21 06:00N 38°31' E 015°35'918.0
2017-May-21 05:31N 38°23' E 015°40'713.7
2017-May-21 05:01N 38°16' E 015°41'714.5
2017-May-21 04:31N 38°09' E 015°37'917.9
2017-May-21 04:01N 38°01' E 015°32'1020.0
2017-May-21 03:30N 37°52' E 015°27'1019.3
2017-May-21 03:00N 37°44' E 015°21'1913.6
2017-May-21 01:37N 37°29' E 015°06'0 0.0
2017-May-20 17:44N 37°29' E 015°06'3212.3
2017-May-20 15:09N 37°02' E 015°25'318.8
2017-May-20 15:00N 36°59' E 015°25'2019.4
2017-May-20 14:00N 36°42' E 015°14'1019.5
2017-May-20 13:30N 36°33' E 015°08'919.0
2017-May-20 13:00N 36°26' E 015°01'1019.0
2017-May-20 12:29N 36°18' E 014°54'918.9
2017-May-20 12:00N 36°10' E 014°47'1018.8
2017-May-20 11:30N 36°03' E 014°40'918.6
2017-May-20 11:00N 35°56' E 014°33'3 1.1
2017-May-20 07:59N 35°53' E 014°31'0 0.0
2017-May-20 07:29N 35°53' E 014°31'0 0.0
2017-May-20 06:56N 35°53' E 014°31'0 0.0
2017-May-20 06:20N 35°53' E 014°31'0 0.0
2017-May-20 05:26N 35°53' E 014°31'0 0.0
2017-May-20 04:02N 35°53' E 014°31'0 0.0
2017-May-20 03:59N 35°53' E 014°31'0 0.0
2017-May-20 02:37N 35°53' E 014°31'1 2.7
2017-May-20 02:13N 35°54' E 014°31'2 7.9
2017-May-20 02:00N 35°55' E 014°33'816.0
2017-May-20 01:30N 36°02' E 014°39'1018.0
2017-May-20 00:56N 36°10' E 014°46'918.7
2017-May-20 00:27N 36°17' E 014°52'1018.5
2017-May-19 23:55N 36°25' E 014°59'3618.4
2017-May-19 21:58N 36°55' E 015°24'2418.1
2017-May-19 20:38N 37°19' E 015°17'919.5
2017-May-19 20:12N 37°26' E 015°10'211.8
2017-May-19 20:00N 37°27' E 015°08'  
Track history (hours):
 
Tides and Currents Weather Stations Pressure Air Temp Water Temp Dewpoint Dewpoint Depression Visibility Wind Speed Wind Dir Waves Ship Positions

Eurocargo Venezia

Last reported at 2017-May-29 19:48 UTC. Time now 2017-May-30 05:34 UTC.
Position N 37°02' E 015°25'.

Length 200 m; draft 6.6 m.

Type: Ship (hazmat cat D). MMSI: 247297200.

Date/timePositionNaut miles runAvg speedWind from/ knotsBaromVisibWave heightAir tempDewpointWater temp
2017-May-29 19:48N 37°02' E 015°25'618.3
2017-May-29 19:29N 36°56' E 015°24'1019.3
2017-May-29 18:59N 36°48' E 015°18'918.9
2017-May-29 18:30N 36°40' E 015°13'1519.2
2017-May-29 17:42N 36°27' E 015°02'719.8
2017-May-29 17:19N 36°21' E 014°56'619.9
2017-May-29 17:00N 36°16' E 014°52'1020.0
2017-May-29 16:30N 36°08' E 014°44'1020.1
2017-May-29 16:00N 35°60' E 014°37'811.5
2017-May-29 15:17N 35°53' E 014°31'0 0.0
2017-May-29 14:59N 35°53' E 014°31'0 0.0
2017-May-29 14:23N 35°53' E 014°31'0 0.0
2017-May-29 12:41N 35°53' E 014°31'0 0.0
2017-May-29 12:19N 35°53' E 014°31'0 0.0
2017-May-29 11:59N 35°53' E 014°31'0 0.0
2017-May-29 11:29N 35°53' E 014°31'0 0.0
2017-May-29 10:41N 35°53' E 014°31'0 0.0
2017-May-29 06:47N 35°53' E 014°31'0 0.0
2017-May-29 06:23N 35°53' E 014°31'0 0.0
2017-May-29 05:53N 35°53' E 014°31'0 0.0
2017-May-29 05:29N 35°53' E 014°31'0 0.0
2017-May-29 04:52N 35°53' E 014°31'0 0.0
2017-May-29 04:22N 35°53' E 014°31'0 0.0
2017-May-29 03:55N 35°53' E 014°31'0 0.0
2017-May-29 03:22N 35°53' E 014°31'0 0.0
2017-May-29 02:56N 35°53' E 014°31'0 0.8
2017-May-29 02:29N 35°53' E 014°31'4 7.5
2017-May-29 02:00N 35°57' E 014°33'917.8
2017-May-29 01:30N 36°04' E 014°27'918.9
2017-May-29 01:00N 36°10' E 014°18'918.7
2017-May-29 00:30N 36°17' E 014°10'918.6
2017-May-29 00:00N 36°23' E 014°02'918.7
2017-May-28 23:30N 36°29' E 013°53'918.8
2017-May-28 23:00N 36°36' E 013°44'918.7
2017-May-28 22:30N 36°42' E 013°36'918.9
2017-May-28 22:00N 36°48' E 013°27'918.9
2017-May-28 21:30N 36°55' E 013°18'1019.1
2017-May-28 21:00N 37°01' E 013°09'918.7
2017-May-28 20:30N 37°08' E 013°01'918.8
2017-May-28 20:00N 37°14' E 012°52'2818.3
2017-May-28 18:27N 37°33' E 012°26'12618.4
2017-May-28 11:35N 39°27' E 011°15'119.0
2017-May-28 11:31N 39°28' E 011°14'918.7
2017-May-28 11:00N 39°37' E 011°10'4119.1
2017-May-28 08:53N 40°15' E 010°53'13919.0
2017-May-28 01:36N 42°26' E 009°51'619.4
2017-May-28 01:16N 42°32' E 009°48'619.1
2017-May-28 00:58N 42°37' E 009°45'919.1
2017-May-28 00:31N 42°45' E 009°41'1019.0
2017-May-28 00:00N 42°55' E 009°37'918.9
2017-May-27 23:30N 43°04' E 009°34'1119.0
2017-May-27 22:57N 43°14' E 009°30'818.5
2017-May-27 22:30N 43°22' E 009°26'918.4
2017-May-27 22:01N 43°30' E 009°22'918.3
2017-May-27 21:30N 43°39' E 009°18'918.6
2017-May-27 21:00N 43°48' E 009°14'918.8
2017-May-27 20:30N 43°56' E 009°09'918.9
2017-May-27 20:00N 44°05' E 009°05'918.9
2017-May-27 19:31N 44°14' E 009°01'918.5
2017-May-27 19:00N 44°23' E 008°57'3 4.8
2017-May-27 18:28N 44°24' E 008°53'0 0.0
2017-May-27 17:58N 44°24' E 008°53'0 0.0
2017-May-27 17:28N 44°24' E 008°53'0 0.0
2017-May-27 16:58N 44°24' E 008°53'0 0.0
2017-May-27 16:25N 44°24' E 008°53'0 0.0
2017-May-27 15:58N 44°24' E 008°53'0 0.0
2017-May-27 15:28N 44°24' E 008°53'0 0.0
2017-May-27 14:55N 44°24' E 008°53'0 0.0
2017-May-27 13:58N 44°24' E 008°53'0 0.0
2017-May-27 13:28N 44°24' E 008°53'0 0.0
2017-May-27 12:58N 44°24' E 008°53'0 0.0
2017-May-27 12:25N 44°24' E 008°53'0 0.0
2017-May-27 11:58N 44°24' E 008°53'0 0.0
2017-May-27 11:28N 44°24' E 008°53'0 0.0
2017-May-27 10:58N 44°24' E 008°53'0 0.0
2017-May-27 10:25N 44°24' E 008°53'0 0.0
2017-May-27 09:58N 44°24' E 008°53'0 0.0
2017-May-27 09:28N 44°24' E 008°53'0 0.0
2017-May-27 08:58N 44°24' E 008°53'0 0.0
2017-May-27 08:28N 44°24' E 008°53'0 0.0
2017-May-27 08:01N 44°24' E 008°53'0 0.0
2017-May-27 07:28N 44°24' E 008°53'0 0.0
2017-May-27 06:58N 44°24' E 008°53'0 0.4
2017-May-27 06:30N 44°24' E 008°53'3 5.8
2017-May-27 06:01N 44°23' E 008°57'2 4.9
2017-May-27 05:30N 44°21' E 008°59'3 6.7
2017-May-27 05:00N 44°18' E 009°01'816.1
2017-May-27 04:30N 44°12' E 009°09'919.0
2017-May-27 04:00N 44°05' E 009°17'1019.1
2017-May-27 03:30N 43°57' E 009°25'1019.2
2017-May-27 03:00N 43°50' E 009°34'1019.5
2017-May-27 02:30N 43°43' E 009°43'1019.3
2017-May-27 02:00N 43°35' E 009°51'1019.1
2017-May-27 01:30N 43°29' E 010°01'1019.1
2017-May-27 01:00N 43°21' E 010°08'1119.3
2017-May-27 00:26N 43°11' E 010°15'819.2
2017-May-27 00:01N 43°04' E 010°20'1019.4
2017-May-26 23:30N 42°55' E 010°27'1019.1
2017-May-26 23:01N 42°48' E 010°34'1019.1
2017-May-26 22:28N 42°39' E 010°43'28918.8
2017-May-26 07:06N 39°09' E 015°05'318.9
2017-May-26 06:58N 39°07' E 015°07'918.7
2017-May-26 06:29N 38°60' E 015°13'918.9
2017-May-26 06:00N 38°52' E 015°20'918.9
2017-May-26 05:30N 38°44' E 015°26'1019.3
2017-May-26 05:00N 38°36' E 015°32'1019.0
2017-May-26 04:30N 38°27' E 015°37'918.7
2017-May-26 04:01N 38°19' E 015°42'815.5
2017-May-26 03:30N 38°12' E 015°37'816.6
2017-May-26 03:01N 38°04' E 015°34'816.1
2017-May-26 02:30N 37°57' E 015°29'918.4
2017-May-26 02:00N 37°49' E 015°24'1019.1
2017-May-26 01:29N 37°40' E 015°18'36 3.7
2017-May-25 15:34N 37°04' E 015°24'220.2
2017-May-25 15:29N 37°02' E 015°24'919.5
2017-May-25 15:00N 36°53' E 015°22'2020.0
2017-May-25 14:00N 36°35' E 015°10'1020.0
2017-May-25 13:30N 36°27' E 015°03'1019.9
2017-May-25 13:00N 36°19' E 014°55'1020.0
2017-May-25 12:30N 36°12' E 014°47'1019.8
2017-May-25 12:00N 36°03' E 014°40'1019.6
2017-May-25 11:30N 35°56' E 014°33'3 6.1
2017-May-25 10:58N 35°53' E 014°31'0 0.0
2017-May-25 10:28N 35°53' E 014°31'0 0.0
2017-May-25 09:16N 35°53' E 014°31'0 0.0
2017-May-25 08:58N 35°53' E 014°31'0 0.0
2017-May-25 08:28N 35°53' E 014°31'0 0.0
2017-May-25 07:58N 35°53' E 014°31'0 0.0
2017-May-25 07:28N 35°53' E 014°31'0 0.0
2017-May-25 06:58N 35°53' E 014°31'0 0.0
2017-May-25 06:28N 35°53' E 014°31'0 0.0
2017-May-25 05:58N 35°53' E 014°31'0 0.0
2017-May-25 05:25N 35°53' E 014°31'0 0.0
2017-May-25 04:55N 35°53' E 014°31'0 0.0
2017-May-25 04:28N 35°53' E 014°31'0 0.0
2017-May-25 03:55N 35°53' E 014°31'0 0.0
2017-May-25 03:28N 35°53' E 014°31'0 0.0
2017-May-25 02:50N 35°53' E 014°31'1 2.0
2017-May-25 02:27N 35°54' E 014°31'410.0
2017-May-25 02:00N 35°57' E 014°35'816.1
2017-May-25 01:30N 36°04' E 014°40'918.5
2017-May-25 01:00N 36°11' E 014°47'918.4
2017-May-25 00:31N 36°18' E 014°54'1018.4
2017-May-25 00:00N 36°26' E 015°01'918.6
2017-May-24 23:30N 36°34' E 015°07'1018.7
2017-May-24 23:00N 36°41' E 015°14'919.2
2017-May-24 22:30N 36°50' E 015°20'1019.1
2017-May-24 22:00N 36°58' E 015°25'3217.9
2017-May-24 20:13N 37°27' E 015°08'4 0.3
2017-May-24 09:20N 37°30' E 015°11'718.5
2017-May-24 08:59N 37°35' E 015°17'918.6
2017-May-24 08:30N 37°43' E 015°22'918.9
2017-May-24 08:00N 37°51' E 015°28'1019.9
2017-May-24 07:30N 38°01' E 015°31'1019.1
2017-May-24 07:00N 38°10' E 015°35'918.7
2017-May-24 06:30N 38°18' E 015°40'1019.1
2017-May-24 06:00N 38°27' E 015°36'1019.3
2017-May-24 05:30N 38°36' E 015°30'919.2
2017-May-24 05:00N 38°44' E 015°24'919.0
2017-May-24 04:30N 38°52' E 015°19'1119.1
2017-May-24 03:56N 39°01' E 015°11'28619.2
2017-May-23 13:02N 42°29' E 010°52'019.4
2017-May-23 13:00N 42°29' E 010°52'1019.4
2017-May-23 12:30N 42°37' E 010°44'919.3
2017-May-23 12:00N 42°45' E 010°37'1019.6
2017-May-23 11:30N 42°53' E 010°29'1019.1
2017-May-23 11:00N 43°02' E 010°23'1019.4
2017-May-23 10:30N 43°11' E 010°19'1019.4
2017-May-23 10:00N 43°20' E 010°15'918.8
2017-May-23 09:30N 43°29' E 010°12'510.3
2017-May-23 09:00N 43°33' E 010°17'2 4.0
2017-May-23 08:30N 43°35' E 010°19'0 0.5
2017-May-23 07:59N 43°35' E 010°19'0 0.0
2017-May-23 07:26N 43°35' E 010°19'0 0.0
2017-May-23 06:59N 43°35' E 010°19'0 0.0
2017-May-23 06:29N 43°35' E 010°19'0 0.0
2017-May-23 05:59N 43°35' E 010°19'0 0.0
2017-May-23 05:29N 43°35' E 010°19'0 0.0
2017-May-23 04:59N 43°35' E 010°19'0 0.0
2017-May-23 04:29N 43°35' E 010°19'0 0.0
2017-May-23 03:59N 43°35' E 010°19'0 0.0
2017-May-23 03:29N 43°35' E 010°19'0 0.0
2017-May-23 02:59N 43°35' E 010°19'0 0.0
2017-May-23 02:29N 43°35' E 010°19'0 0.0
2017-May-23 01:59N 43°35' E 010°19'0 0.0
2017-May-23 01:29N 43°35' E 010°19'0 0.0
2017-May-23 00:59N 43°35' E 010°19'0 0.0
2017-May-23 00:26N 43°35' E 010°19'0 0.0
2017-May-22 23:59N 43°35' E 010°19'1 1.7
2017-May-22 23:30N 43°34' E 010°18'4 8.4
2017-May-22 23:01N 43°31' E 010°15'917.2
2017-May-22 22:31N 43°30' E 010°03'1020.8
2017-May-22 22:01N 43°35' E 009°50'1121.4
2017-May-22 21:30N 43°44' E 009°41'1121.4
2017-May-22 21:00N 43°52' E 009°31'1121.3
2017-May-22 20:30N 43°60' E 009°22'1121.2
2017-May-22 20:01N 44°08' E 009°12'1121.1
2017-May-22 19:31N 44°16' E 009°03'917.5
2017-May-22 19:00N 44°23' E 008°56'2 4.2
2017-May-22 18:29N 44°24' E 008°53'0 0.0
2017-May-22 17:59N 44°24' E 008°53'0 0.0
2017-May-22 17:29N 44°24' E 008°53'0 0.0
2017-May-22 16:56N 44°24' E 008°53'0 0.0
2017-May-22 16:26N 44°24' E 008°53'0 0.0
2017-May-22 15:53N 44°24' E 008°53'0 0.0
2017-May-22 15:29N 44°24' E 008°53'0 0.0
2017-May-22 14:53N 44°24' E 008°53'0 0.0
2017-May-22 13:56N 44°24' E 008°53'0 0.0
2017-May-22 13:29N 44°24' E 008°53'0 0.0
2017-May-22 12:59N 44°24' E 008°53'0 0.0
2017-May-22 12:29N 44°24' E 008°53'0 0.0
2017-May-22 11:59N 44°24' E 008°53'0 0.0
2017-May-22 11:29N 44°24' E 008°53'0 0.0
2017-May-22 10:56N 44°24' E 008°53'0 0.0
2017-May-22 10:29N 44°24' E 008°53'0 0.0
2017-May-22 09:59N 44°24' E 008°53'0 0.0
2017-May-22 09:29N 44°24' E 008°53'0 0.0
2017-May-22 08:59N 44°24' E 008°53'0 0.0
2017-May-22 08:29N 44°24' E 008°53'0 0.0
2017-May-22 07:59N 44°24' E 008°53'0 0.8
2017-May-22 07:30N 44°24' E 008°54'3 6.2
2017-May-22 07:00N 44°23' E 008°58'815.3
2017-May-22 06:30N 44°16' E 009°03'1019.6
2017-May-22 06:00N 44°09' E 009°12'1019.5
2017-May-22 05:30N 44°01' E 009°21'1019.3
2017-May-22 05:00N 43°54' E 009°30'1019.4
2017-May-22 04:30N 43°47' E 009°39'1019.6
2017-May-22 04:00N 43°39' E 009°48'1019.4
2017-May-22 03:30N 43°32' E 009°57'918.8
2017-May-22 03:01N 43°25' E 010°05'1019.3
2017-May-22 02:31N 43°17' E 010°11'1019.1
2017-May-22 02:00N 43°08' E 010°17'1019.2
2017-May-22 01:30N 42°60' E 010°24'918.4
2017-May-22 01:01N 42°52' E 010°31'1618.7
2017-May-22 00:10N 42°39' E 010°43'319.2
2017-May-22 00:01N 42°37' E 010°45'1019.4
2017-May-21 23:30N 42°29' E 010°53'4419.3
2017-May-21 21:15N 42°01' E 011°38'519.0
2017-May-21 21:00N 41°57' E 011°43'4919.1
2017-May-21 18:25N 41°24' E 012°30'18018.0
2017-May-21 08:23N 39°08' E 015°06'818.3
2017-May-21 07:58N 39°02' E 015°12'818.6
2017-May-21 07:30N 38°55' E 015°18'918.6
2017-May-21 07:00N 38°47' E 015°24'918.6
2017-May-21 06:30N 38°39' E 015°30'918.1
2017-May-21 06:00N 38°31' E 015°35'918.0
2017-May-21 05:31N 38°23' E 015°40'713.7
2017-May-21 05:01N 38°16' E 015°41'714.5
2017-May-21 04:31N 38°09' E 015°37'917.9
2017-May-21 04:01N 38°01' E 015°32'1020.0
2017-May-21 03:30N 37°52' E 015°27'1019.3
2017-May-21 03:00N 37°44' E 015°21'1913.6
2017-May-21 01:37N 37°29' E 015°06'0 0.0
2017-May-20 17:44N 37°29' E 015°06'3212.3
2017-May-20 15:09N 37°02' E 015°25'318.8
2017-May-20 15:00N 36°59' E 015°25'2019.4
2017-May-20 14:00N 36°42' E 015°14'1019.5
2017-May-20 13:30N 36°33' E 015°08'919.0
2017-May-20 13:00N 36°26' E 015°01'1019.0
2017-May-20 12:29N 36°18' E 014°54'918.9
2017-May-20 12:00N 36°10' E 014°47'1018.8
2017-May-20 11:30N 36°03' E 014°40'918.6
2017-May-20 11:00N 35°56' E 014°33'3 1.1
2017-May-20 07:59N 35°53' E 014°31'0 0.0
2017-May-20 07:29N 35°53' E 014°31'0 0.0
2017-May-20 06:56N 35°53' E 014°31'0 0.0
2017-May-20 06:20N 35°53' E 014°31'0 0.0
2017-May-20 05:26N 35°53' E 014°31'0 0.0
2017-May-20 04:02N 35°53' E 014°31'0 0.0
2017-May-20 03:59N 35°53' E 014°31'0 0.0
2017-May-20 02:37N 35°53' E 014°31'1 2.7
2017-May-20 02:13N 35°54' E 014°31'2 7.9
2017-May-20 02:00N 35°55' E 014°33'816.0
2017-May-20 01:30N 36°02' E 014°39'1018.0
2017-May-20 00:56N 36°10' E 014°46'918.7
2017-May-20 00:27N 36°17' E 014°52'1018.5
2017-May-19 23:55N 36°25' E 014°59'3618.4
2017-May-19 21:58N 36°55' E 015°24'2418.1
2017-May-19 20:38N 37°19' E 015°17'919.5
2017-May-19 20:12N 37°26' E 015°10'211.8
2017-May-19 20:00N 37°27' E 015°08'  

Dump ship's entire track history